createdAt,value
2022-10-31T00:02:12.751Z,26.50
2022-10-31T00:07:14.989Z,27.60
2022-10-31T00:12:21.146Z,29.60
2022-10-31T00:17:22.949Z,27.90
2022-10-31T00:22:26.013Z,28.50
2022-10-31T00:27:27.864Z,27.80
2022-10-31T00:32:32.573Z,30.00
2022-10-31T00:37:34.443Z,33.00
2022-10-31T00:42:36.275Z,28.90
2022-10-31T00:47:42.503Z,29.30
2022-10-31T00:52:44.280Z,28.90
2022-10-31T00:57:49.426Z,26.40
2022-10-31T01:02:51.358Z,27.70
2022-10-31T01:07:53.182Z,27.80
2022-10-31T01:12:54.960Z,25.60
2022-10-31T01:17:58.076Z,26.40
2022-10-31T01:23:00.158Z,27.20
2022-10-31T01:28:02.229Z,27.80
2022-10-31T01:33:04.519Z,25.70
2022-10-31T01:38:06.392Z,26.40
2022-10-31T01:43:14.671Z,29.40
2022-10-31T01:48:20.520Z,27.90
2022-10-31T01:53:26.829Z,28.00
2022-10-31T01:58:31.811Z,26.70
2022-10-31T02:03:34.214Z,28.60
2022-10-31T02:08:37.529Z,26.30
2022-10-31T02:13:39.615Z,23.10
2022-10-31T02:18:42.208Z,25.00
2022-10-31T02:23:54.856Z,26.30
2022-10-31T02:29:07.968Z,25.90
2022-10-31T02:34:22.036Z,25.90
2022-10-31T02:39:36.303Z,27.10
2022-10-31T02:44:59.584Z,26.00
2022-10-31T02:50:13.739Z,27.80
2022-10-31T02:55:28.120Z,24.50
2022-10-31T03:00:55.149Z,24.60
2022-10-31T03:06:22.250Z,22.90
2022-10-31T03:11:32.733Z,27.10
2022-10-31T03:16:48.946Z,27.60
2022-10-31T03:21:58.793Z,27.70
2022-10-31T03:27:03.052Z,25.40
2022-10-31T03:32:24.579Z,29.50
2022-10-31T03:37:30.873Z,27.80
2022-10-31T03:42:38.574Z,26.30
2022-10-31T03:47:42.593Z,26.70
2022-10-31T03:52:52.979Z,29.60
2022-10-31T03:58:06.250Z,28.70
2022-10-31T04:03:16.949Z,27.00
2022-10-31T04:08:25.521Z,29.20
2022-10-31T04:13:32.641Z,28.40
2022-10-31T04:18:39.130Z,27.30
2022-10-31T04:23:41.004Z,26.70
2022-10-31T04:28:49.232Z,27.70
2022-10-31T04:33:51.210Z,27.10
2022-10-31T04:38:53.599Z,28.50
2022-10-31T04:44:14.323Z,29.20
2022-10-31T04:49:16.298Z,27.10
2022-10-31T04:54:37.638Z,29.40
2022-10-31T04:59:42.481Z,40.90
2022-10-31T05:04:46.100Z,36.90
2022-10-31T05:09:48.079Z,31.10
2022-10-31T05:14:49.956Z,32.10
2022-10-31T05:20:23.369Z,37.30
2022-10-31T05:25:48.416Z,39.30
2022-10-31T05:30:50.990Z,43.10
2022-10-31T05:35:53.275Z,31.90
2022-10-31T05:41:13.990Z,33.60
2022-10-31T05:46:19.717Z,31.80
2022-10-31T05:51:40.585Z,34.30
2022-10-31T05:56:44.305Z,34.40
2022-10-31T06:01:46.421Z,35.90
2022-10-31T06:07:01.558Z,36.40
2022-10-31T06:12:03.778Z,32.20
2022-10-31T06:17:36.054Z,31.90
2022-10-31T06:22:37.929Z,31.40
2022-10-31T06:27:40.859Z,29.80
2022-10-31T06:32:47.338Z,29.10
2022-10-31T06:37:54.305Z,32.40
2022-10-31T06:43:04.607Z,30.40
2022-10-31T06:48:22.831Z,29.30
2022-10-31T06:53:50.936Z,29.20
2022-10-31T06:58:53.125Z,31.50
2022-10-31T07:04:05.132Z,28.30
2022-10-31T07:09:09.571Z,28.30
2022-10-31T07:14:11.451Z,31.30
2022-10-31T07:19:13.330Z,28.80
2022-10-31T07:24:15.720Z,29.80
2022-10-31T07:29:17.472Z,28.80
2022-10-31T07:34:19.814Z,30.70
2022-10-31T07:39:40.484Z,31.70
2022-10-31T07:44:42.624Z,30.10
2022-10-31T07:50:03.401Z,29.30
2022-10-31T07:55:28.953Z,29.80
2022-10-31T08:00:35.328Z,30.30
2022-10-31T08:05:38.041Z,29.40
2022-10-31T08:11:02.036Z,28.20
2022-10-31T08:16:08.601Z,28.80
2022-10-31T08:21:15.399Z,28.00
2022-10-31T08:26:17.782Z,29.10
2022-10-31T08:31:20.134Z,28.00
2022-10-31T08:36:22.339Z,31.20
2022-10-31T08:41:26.799Z,27.20
2022-10-31T08:46:29.694Z,27.10
2022-10-31T08:51:31.671Z,25.70
2022-10-31T08:56:33.630Z,23.40
2022-10-31T09:01:36.000Z,23.50
2022-10-31T09:06:50.484Z,22.20
2022-10-31T09:12:03.733Z,21.90
2022-10-31T09:17:47.423Z,18.90
2022-10-31T09:23:06.837Z,17.90
2022-10-31T09:28:13.189Z,19.00
2022-10-31T09:33:15.406Z,16.60
2022-10-31T09:38:22.060Z,17.80
2022-10-31T09:43:34.074Z,16.90
2022-10-31T09:49:03.905Z,14.30
2022-10-31T09:54:38.244Z,14.00
2022-10-31T09:59:44.459Z,14.60
2022-10-31T10:05:07.497Z,14.30
2022-10-31T10:10:22.787Z,14.10
2022-10-31T10:16:16.991Z,12.80
2022-10-31T10:21:33.919Z,12.50
2022-10-31T10:26:39.400Z,12.30
2022-10-31T10:31:43.799Z,12.60
2022-10-31T10:36:58.996Z,12.20
2022-10-31T10:42:20.242Z,12.20
2022-10-31T10:47:41.390Z,12.00
2022-10-31T10:52:50.896Z,11.10
2022-10-31T10:57:56.810Z,12.00
2022-10-31T11:02:58.809Z,10.40
2022-10-31T11:08:00.617Z,10.40
2022-10-31T11:13:08.421Z,10.00
2022-10-31T11:18:22.638Z,11.70
2022-10-31T11:23:26.576Z,9.20
2022-10-31T11:28:36.181Z,9.50
2022-10-31T11:33:54.588Z,9.00
2022-10-31T11:38:56.872Z,7.80
2022-10-31T11:44:03.361Z,8.70
2022-10-31T11:49:12.410Z,9.50
2022-10-31T11:54:30.052Z,8.10
2022-10-31T11:59:33.568Z,8.30
2022-10-31T12:04:44.578Z,8.50
2022-10-31T12:09:46.419Z,6.80
2022-10-31T12:15:04.086Z,6.70
2022-10-31T12:20:12.231Z,7.80
2022-10-31T12:25:25.350Z,7.40
2022-10-31T12:30:40.137Z,6.30
2022-10-31T12:35:47.706Z,6.70
2022-10-31T12:41:06.682Z,6.60
2022-10-31T12:46:41.171Z,7.80
2022-10-31T12:51:52.680Z,5.60
2022-10-31T12:57:03.756Z,5.70
2022-10-31T13:02:21.086Z,6.10
2022-10-31T13:07:32.190Z,6.30
2022-10-31T13:12:37.527Z,6.10
2022-10-31T13:17:58.685Z,6.40
2022-10-31T13:23:23.870Z,5.20
2022-10-31T13:28:58.534Z,6.10
2022-10-31T13:34:10.208Z,5.50
2022-10-31T13:39:31.398Z,5.70
2022-10-31T13:44:38.796Z,5.00
2022-10-31T13:49:40.982Z,6.10
2022-10-31T13:54:56.839Z,5.40
2022-10-31T14:00:22.310Z,5.90
2022-10-31T14:05:34.530Z,5.80
2022-10-31T14:10:39.800Z,6.40
2022-10-31T14:15:53.447Z,6.70
2022-10-31T14:20:55.416Z,6.10
2022-10-31T14:26:16.024Z,6.20
2022-10-31T14:31:44.479Z,5.80
2022-10-31T14:37:15.639Z,5.90
2022-10-31T14:42:34.270Z,7.20
2022-10-31T14:47:54.786Z,7.10
2022-10-31T14:52:58.972Z,7.20
2022-10-31T14:58:05.682Z,6.10
2022-10-31T15:03:33.608Z,6.10
2022-10-31T15:08:50.354Z,7.20
2022-10-31T15:19:08.617Z,7.20
2022-10-31T15:24:19.452Z,6.60
2022-10-31T15:29:27.008Z,6.40
2022-10-31T15:34:31.870Z,7.50
2022-10-31T15:39:34.593Z,11.10
2022-10-31T15:44:41.556Z,8.90
2022-10-31T15:54:55.455Z,7.60
2022-10-31T15:59:57.938Z,8.50
2022-10-31T16:05:02.281Z,8.80
2022-10-31T16:10:05.436Z,9.10
2022-10-31T16:15:15.967Z,9.80
2022-10-31T16:20:30.081Z,9.70
2022-10-31T16:25:39.205Z,9.40
2022-10-31T16:30:48.526Z,10.40
2022-10-31T16:35:56.147Z,9.30
2022-10-31T16:41:08.651Z,8.70
2022-10-31T16:46:19.658Z,8.60
2022-10-31T16:51:22.109Z,9.90
2022-10-31T16:56:33.345Z,10.60
2022-10-31T17:01:36.297Z,10.10
2022-10-31T17:06:38.232Z,9.80
2022-10-31T17:11:50.191Z,12.40
2022-10-31T17:16:52.021Z,18.80
2022-10-31T17:21:53.875Z,30.60
2022-10-31T17:26:55.769Z,27.80
2022-10-31T17:31:57.644Z,30.10
2022-10-31T17:36:59.627Z,14.70
2022-10-31T17:42:01.502Z,21.00
2022-10-31T17:47:03.380Z,14.80
2022-10-31T17:52:05.878Z,15.00
2022-10-31T17:57:07.869Z,15.20
2022-10-31T18:02:11.152Z,22.20
2022-10-31T18:07:13.267Z,20.60
2022-10-31T18:12:15.852Z,27.80
2022-10-31T18:17:17.923Z,28.00
2022-10-31T18:22:19.899Z,25.40
2022-10-31T18:27:21.780Z,25.20
2022-10-31T18:32:23.656Z,26.10
2022-10-31T18:37:25.536Z,23.10
2022-10-31T18:42:27.361Z,25.30
2022-10-31T18:47:29.285Z,27.10
2022-10-31T18:52:32.088Z,23.80
2022-10-31T18:57:33.964Z,28.70
2022-10-31T19:02:35.900Z,37.30
2022-10-31T19:07:37.819Z,51.90
2022-10-31T19:12:39.697Z,62.80
2022-10-31T19:17:41.575Z,84.30
2022-10-31T19:22:43.760Z,96.00
2022-10-31T19:27:45.643Z,103.20
2022-10-31T19:32:48.128Z,97.00
2022-10-31T19:37:50.010Z,82.20
2022-10-31T19:42:51.878Z,80.00
2022-10-31T19:47:53.659Z,70.00
2022-10-31T19:52:55.538Z,84.70
2022-10-31T19:58:01.727Z,68.10
2022-10-31T20:03:05.090Z,63.60
2022-10-31T20:08:07.690Z,64.80
2022-10-31T20:13:10.931Z,65.20
2022-10-31T20:18:12.846Z,64.20
2022-10-31T20:23:14.837Z,69.70
2022-10-31T20:28:17.313Z,66.10
2022-10-31T20:33:19.361Z,102.70
2022-10-31T20:38:21.163Z,71.10
2022-10-31T20:43:23.113Z,59.70
2022-10-31T20:48:25.913Z,62.20
2022-10-31T20:53:28.611Z,102.50
2022-10-31T20:58:31.104Z,96.10
2022-10-31T21:03:32.967Z,87.70
2022-10-31T21:08:35.469Z,74.60
2022-10-31T21:13:42.464Z,104.50
2022-10-31T21:18:46.236Z,94.80
2022-10-31T21:23:53.188Z,98.70
2022-10-31T21:28:58.445Z,80.90
2022-10-31T21:34:00.426Z,83.10
2022-10-31T21:39:03.218Z,78.60
2022-10-31T21:44:05.510Z,79.80
2022-10-31T21:49:07.488Z,86.70
2022-10-31T21:54:28.106Z,111.40
2022-10-31T21:59:30.864Z,102.30
2022-10-31T22:04:33.498Z,104.20
2022-10-31T22:09:41.519Z,103.20
2022-10-31T22:14:44.310Z,106.50
2022-10-31T22:19:46.194Z,104.70
2022-10-31T22:24:48.174Z,101.90
2022-10-31T22:29:55.530Z,93.10
2022-10-31T22:34:58.381Z,93.10
2022-10-31T22:40:00.266Z,94.00
2022-10-31T22:45:03.061Z,103.10
2022-10-31T22:50:06.119Z,100.40
2022-10-31T22:55:09.324Z,95.20
2022-10-31T23:00:12.535Z,96.30
2022-10-31T23:05:14.457Z,91.30
2022-10-31T23:10:16.312Z,102.80
2022-10-31T23:15:18.215Z,99.40
2022-10-31T23:20:19.970Z,88.90
2022-10-31T23:25:40.666Z,88.10
2022-10-31T23:30:45.660Z,93.50
2022-10-31T23:35:47.434Z,80.30
2022-10-31T23:40:49.308Z,61.50
2022-10-31T23:45:51.187Z,56.80
2022-10-31T23:50:53.062Z,50.50
2022-10-31T23:55:55.610Z,42.80
